sensor_id;sensor_type;location;lat;lon;timestamp;temperature;humidity
30893;DHT22;17595;50.884;4.346;2023-04-09T00:02:15;11.30;99.90
30893;DHT22;17595;50.884;4.346;2023-04-09T00:04:41;11.30;99.90
30893;DHT22;17595;50.884;4.346;2023-04-09T00:07:06;11.30;99.90
30893;DHT22;17595;50.884;4.346;2023-04-09T00:09:32;11.30;99.90
30893;DHT22;17595;50.884;4.346;2023-04-09T00:11:57;11.30;99.90
30893;DHT22;17595;50.884;4.346;2023-04-09T00:14:23;11.20;99.90
30893;DHT22;17595;50.884;4.346;2023-04-09T00:16:49;11.30;99.90
30893;DHT22;17595;50.884;4.346;2023-04-09T00:19:15;11.30;99.90
30893;DHT22;17595;50.884;4.346;2023-04-09T00:21:41;11.40;99.90
30893;DHT22;17595;50.884;4.346;2023-04-09T00:24:07;11.30;99.90
30893;DHT22;17595;50.884;4.346;2023-04-09T00:26:32;11.20;99.90
30893;DHT22;17595;50.884;4.346;2023-04-09T00:28:58;11.20;99.90
30893;DHT22;17595;50.884;4.346;2023-04-09T00:31:23;11.10;99.90
30893;DHT22;17595;50.884;4.346;2023-04-09T00:33:49;11.20;99.90
30893;DHT22;17595;50.884;4.346;2023-04-09T00:36:15;11.20;99.90
30893;DHT22;17595;50.884;4.346;2023-04-09T00:38:40;11.20;99.90
30893;DHT22;17595;50.884;4.346;2023-04-09T00:41:06;11.10;99.90
30893;DHT22;17595;50.884;4.346;2023-04-09T00:43:32;11.10;99.90
30893;DHT22;17595;50.884;4.346;2023-04-09T00:45:58;11.10;99.90
30893;DHT22;17595;50.884;4.346;2023-04-09T00:48:25;11.10;99.90
30893;DHT22;17595;50.884;4.346;2023-04-09T00:50:51;11.10;99.90
30893;DHT22;17595;50.884;4.346;2023-04-09T00:53:17;11.00;99.90
30893;DHT22;17595;50.884;4.346;2023-04-09T00:55:43;11.10;99.90
30893;DHT22;17595;50.884;4.346;2023-04-09T00:58:09;11.00;99.90
30893;DHT22;17595;50.884;4.346;2023-04-09T01:00:34;11.00;99.90
30893;DHT22;17595;50.884;4.346;2023-04-09T01:03:01;11.00;99.90
30893;DHT22;17595;50.884;4.346;2023-04-09T01:05:49;11.00;99.90
30893;DHT22;17595;50.884;4.346;2023-04-09T01:08:30;10.90;99.90
30893;DHT22;17595;50.884;4.346;2023-04-09T01:10:58;11.00;99.90
30893;DHT22;17595;50.884;4.346;2023-04-09T01:13:38;11.00;99.90
30893;DHT22;17595;50.884;4.346;2023-04-09T01:16:09;10.90;99.90
30893;DHT22;17595;50.884;4.346;2023-04-09T01:18:51;10.80;99.90
30893;DHT22;17595;50.884;4.346;2023-04-09T01:21:20;10.80;99.90
30893;DHT22;17595;50.884;4.346;2023-04-09T01:27:00;10.80;99.90
30893;DHT22;17595;50.884;4.346;2023-04-09T01:29:30;10.80;99.90
30893;DHT22;17595;50.884;4.346;2023-04-09T01:31:56;10.80;99.90
30893;DHT22;17595;50.884;4.346;2023-04-09T01:34:23;10.80;99.90
30893;DHT22;17595;50.884;4.346;2023-04-09T01:36:53;10.70;99.90
30893;DHT22;17595;50.884;4.346;2023-04-09T01:39:19;10.80;99.90
30893;DHT22;17595;50.884;4.346;2023-04-09T01:41:45;10.80;99.90
30893;DHT22;17595;50.884;4.346;2023-04-09T01:44:13;10.70;99.90
30893;DHT22;17595;50.884;4.346;2023-04-09T01:46:39;10.70;99.90
30893;DHT22;17595;50.884;4.346;2023-04-09T01:49:05;10.70;99.90
30893;DHT22;17595;50.884;4.346;2023-04-09T01:51:32;10.70;99.90
30893;DHT22;17595;50.884;4.346;2023-04-09T01:53:59;10.60;99.90
30893;DHT22;17595;50.884;4.346;2023-04-09T01:56:24;10.60;99.90
30893;DHT22;17595;50.884;4.346;2023-04-09T01:58:50;10.60;99.90
30893;DHT22;17595;50.884;4.346;2023-04-09T02:01:34;10.60;99.90
30893;DHT22;17595;50.884;4.346;2023-04-09T02:04:04;10.50;99.90
30893;DHT22;17595;50.884;4.346;2023-04-09T02:06:40;10.50;99.90
30893;DHT22;17595;50.884;4.346;2023-04-09T02:09:09;10.50;99.90
30893;DHT22;17595;50.884;4.346;2023-04-09T02:11:40;10.50;99.90
30893;DHT22;17595;50.884;4.346;2023-04-09T02:14:07;10.50;99.90
30893;DHT22;17595;50.884;4.346;2023-04-09T02:16:33;10.60;99.90
30893;DHT22;17595;50.884;4.346;2023-04-09T02:19:00;10.60;99.90
30893;DHT22;17595;50.884;4.346;2023-04-09T02:21:26;10.50;99.90
30893;DHT22;17595;50.884;4.346;2023-04-09T02:23:53;10.50;99.90
30893;DHT22;17595;50.884;4.346;2023-04-09T02:26:20;10.50;99.90
30893;DHT22;17595;50.884;4.346;2023-04-09T02:28:46;10.40;99.90
30893;DHT22;17595;50.884;4.346;2023-04-09T02:31:11;10.40;99.90
30893;DHT22;17595;50.884;4.346;2023-04-09T02:33:37;10.40;99.90
30893;DHT22;17595;50.884;4.346;2023-04-09T02:36:03;10.40;99.90
30893;DHT22;17595;50.884;4.346;2023-04-09T02:38:29;10.40;99.90
30893;DHT22;17595;50.884;4.346;2023-04-09T02:40:55;10.40;99.90
30893;DHT22;17595;50.884;4.346;2023-04-09T02:43:20;10.40;99.90
30893;DHT22;17595;50.884;4.346;2023-04-09T02:45:46;10.40;99.90
30893;DHT22;17595;50.884;4.346;2023-04-09T02:48:11;10.30;99.90
30893;DHT22;17595;50.884;4.346;2023-04-09T02:50:37;10.30;99.90
30893;DHT22;17595;50.884;4.346;2023-04-09T02:53:03;10.20;99.90
30893;DHT22;17595;50.884;4.346;2023-04-09T02:55:28;10.30;99.90
30893;DHT22;17595;50.884;4.346;2023-04-09T02:57:54;10.30;99.90
30893;DHT22;17595;50.884;4.346;2023-04-09T03:00:20;10.30;99.90
30893;DHT22;17595;50.884;4.346;2023-04-09T03:02:45;10.30;99.90
30893;DHT22;17595;50.884;4.346;2023-04-09T03:05:11;10.30;99.90
30893;DHT22;17595;50.884;4.346;2023-04-09T03:07:36;10.20;99.90
30893;DHT22;17595;50.884;4.346;2023-04-09T03:10:02;10.20;99.90
30893;DHT22;17595;50.884;4.346;2023-04-09T03:12:28;10.20;99.90
30893;DHT22;17595;50.884;4.346;2023-04-09T03:14:53;10.20;99.90
30893;DHT22;17595;50.884;4.346;2023-04-09T03:17:19;10.20;99.90
30893;DHT22;17595;50.884;4.346;2023-04-09T03:19:45;10.10;99.90
30893;DHT22;17595;50.884;4.346;2023-04-09T03:22:10;10.10;99.90
30893;DHT22;17595;50.884;4.346;2023-04-09T03:24:36;10.10;99.90
30893;DHT22;17595;50.884;4.346;2023-04-09T03:27:01;10.20;99.90
30893;DHT22;17595;50.884;4.346;2023-04-09T03:29:27;10.30;99.90
30893;DHT22;17595;50.884;4.346;2023-04-09T03:31:52;10.30;99.90
30893;DHT22;17595;50.884;4.346;2023-04-09T03:34:18;10.30;99.90
30893;DHT22;17595;50.884;4.346;2023-04-09T03:36:43;10.20;99.90
30893;DHT22;17595;50.884;4.346;2023-04-09T03:39:09;10.10;99.90
30893;DHT22;17595;50.884;4.346;2023-04-09T03:41:35;10.10;99.90
30893;DHT22;17595;50.884;4.346;2023-04-09T03:44:00;10.10;99.90
30893;DHT22;17595;50.884;4.346;2023-04-09T03:46:26;10.10;99.90
30893;DHT22;17595;50.884;4.346;2023-04-09T03:48:51;10.00;99.90
30893;DHT22;17595;50.884;4.346;2023-04-09T03:51:17;10.00;99.90
30893;DHT22;17595;50.884;4.346;2023-04-09T03:53:43;10.10;99.90
30893;DHT22;17595;50.884;4.346;2023-04-09T03:56:09;10.00;99.90
30893;DHT22;17595;50.884;4.346;2023-04-09T03:58:35;10.00;99.90
30893;DHT22;17595;50.884;4.346;2023-04-09T04:01:01;9.90;99.90
30893;DHT22;17595;50.884;4.346;2023-04-09T04:03:27;9.90;99.90
30893;DHT22;17595;50.884;4.346;2023-04-09T04:05:53;9.90;99.90
30893;DHT22;17595;50.884;4.346;2023-04-09T04:08:18;10.00;99.90
30893;DHT22;17595;50.884;4.346;2023-04-09T04:10:44;10.00;99.90
30893;DHT22;17595;50.884;4.346;2023-04-09T04:13:10;10.10;99.90
30893;DHT22;17595;50.884;4.346;2023-04-09T04:15:39;10.10;99.90
30893;DHT22;17595;50.884;4.346;2023-04-09T04:18:09;10.10;99.90
30893;DHT22;17595;50.884;4.346;2023-04-09T04:20:35;10.00;99.90
30893;DHT22;17595;50.884;4.346;2023-04-09T04:23:02;10.00;99.90
30893;DHT22;17595;50.884;4.346;2023-04-09T04:25:28;10.00;99.90
30893;DHT22;17595;50.884;4.346;2023-04-09T04:27:53;10.00;99.90
30893;DHT22;17595;50.884;4.346;2023-04-09T04:30:20;9.90;99.90
30893;DHT22;17595;50.884;4.346;2023-04-09T04:32:46;9.90;99.90
30893;DHT22;17595;50.884;4.346;2023-04-09T04:35:12;9.90;99.90
30893;DHT22;17595;50.884;4.346;2023-04-09T04:37:38;9.90;99.90
30893;DHT22;17595;50.884;4.346;2023-04-09T04:40:05;9.90;99.90
30893;DHT22;17595;50.884;4.346;2023-04-09T04:42:31;10.00;99.90
30893;DHT22;17595;50.884;4.346;2023-04-09T04:44:56;10.00;99.90
30893;DHT22;17595;50.884;4.346;2023-04-09T04:47:22;10.00;99.90
30893;DHT22;17595;50.884;4.346;2023-04-09T04:49:48;9.90;99.90
30893;DHT22;17595;50.884;4.346;2023-04-09T04:52:13;9.80;99.90
30893;DHT22;17595;50.884;4.346;2023-04-09T04:54:39;9.90;99.90
30893;DHT22;17595;50.884;4.346;2023-04-09T04:57:04;9.80;99.90
30893;DHT22;17595;50.884;4.346;2023-04-09T04:59:30;9.80;99.90
30893;DHT22;17595;50.884;4.346;2023-04-09T05:01:56;9.80;99.90
30893;DHT22;17595;50.884;4.346;2023-04-09T05:04:21;9.80;99.90
30893;DHT22;17595;50.884;4.346;2023-04-09T05:06:47;9.80;99.90
30893;DHT22;17595;50.884;4.346;2023-04-09T05:09:13;9.70;99.90
30893;DHT22;17595;50.884;4.346;2023-04-09T05:11:38;9.80;99.90
30893;DHT22;17595;50.884;4.346;2023-04-09T05:14:04;9.80;99.90
30893;DHT22;17595;50.884;4.346;2023-04-09T05:16:30;9.70;99.90
30893;DHT22;17595;50.884;4.346;2023-04-09T05:18:56;9.70;99.90
30893;DHT22;17595;50.884;4.346;2023-04-09T05:21:22;9.80;99.90
30893;DHT22;17595;50.884;4.346;2023-04-09T05:23:47;9.80;99.90
30893;DHT22;17595;50.884;4.346;2023-04-09T05:26:13;9.80;99.90
30893;DHT22;17595;50.884;4.346;2023-04-09T05:28:38;9.90;99.90
30893;DHT22;17595;50.884;4.346;2023-04-09T05:31:04;9.90;99.90
30893;DHT22;17595;50.884;4.346;2023-04-09T05:33:35;9.90;99.90
30893;DHT22;17595;50.884;4.346;2023-04-09T05:36:02;9.90;99.90
30893;DHT22;17595;50.884;4.346;2023-04-09T05:38:28;9.90;99.90
30893;DHT22;17595;50.884;4.346;2023-04-09T05:40:53;9.90;99.90
30893;DHT22;17595;50.884;4.346;2023-04-09T05:43:19;10.00;99.90
30893;DHT22;17595;50.884;4.346;2023-04-09T05:45:45;10.10;99.90
30893;DHT22;17595;50.884;4.346;2023-04-09T05:48:10;10.10;99.90
30893;DHT22;17595;50.884;4.346;2023-04-09T05:50:36;10.10;99.90
30893;DHT22;17595;50.884;4.346;2023-04-09T05:53:01;10.10;99.90
30893;DHT22;17595;50.884;4.346;2023-04-09T05:55:27;10.20;99.90
30893;DHT22;17595;50.884;4.346;2023-04-09T05:57:53;10.20;99.90
30893;DHT22;17595;50.884;4.346;2023-04-09T06:00:18;10.30;99.90
30893;DHT22;17595;50.884;4.346;2023-04-09T06:02:44;10.30;99.90
30893;DHT22;17595;50.884;4.346;2023-04-09T06:05:10;10.40;99.90
30893;DHT22;17595;50.884;4.346;2023-04-09T06:07:35;10.30;99.90
30893;DHT22;17595;50.884;4.346;2023-04-09T06:10:01;10.30;99.90
30893;DHT22;17595;50.884;4.346;2023-04-09T06:12:27;10.30;99.90
30893;DHT22;17595;50.884;4.346;2023-04-09T06:14:52;10.40;99.90
30893;DHT22;17595;50.884;4.346;2023-04-09T06:17:18;10.40;99.90
30893;DHT22;17595;50.884;4.346;2023-04-09T06:19:43;10.40;99.90
30893;DHT22;17595;50.884;4.346;2023-04-09T06:22:09;10.60;99.90
30893;DHT22;17595;50.884;4.346;2023-04-09T06:24:37;10.60;99.90
30893;DHT22;17595;50.884;4.346;2023-04-09T06:27:03;10.70;99.90
30893;DHT22;17595;50.884;4.346;2023-04-09T06:29:29;10.70;99.90
30893;DHT22;17595;50.884;4.346;2023-04-09T06:31:54;10.70;99.90
30893;DHT22;17595;50.884;4.346;2023-04-09T06:34:20;10.80;99.90
30893;DHT22;17595;50.884;4.346;2023-04-09T06:36:45;10.80;99.90
30893;DHT22;17595;50.884;4.346;2023-04-09T06:39:11;10.90;99.90
30893;DHT22;17595;50.884;4.346;2023-04-09T06:41:37;11.00;99.90
30893;DHT22;17595;50.884;4.346;2023-04-09T06:44:02;11.00;99.90
30893;DHT22;17595;50.884;4.346;2023-04-09T06:46:28;11.00;99.90
30893;DHT22;17595;50.884;4.346;2023-04-09T06:48:54;11.10;99.90
30893;DHT22;17595;50.884;4.346;2023-04-09T06:51:19;11.10;99.90
30893;DHT22;17595;50.884;4.346;2023-04-09T06:53:45;11.20;99.90
30893;DHT22;17595;50.884;4.346;2023-04-09T06:56:12;11.30;99.90
30893;DHT22;17595;50.884;4.346;2023-04-09T06:58:38;11.30;99.90
30893;DHT22;17595;50.884;4.346;2023-04-09T07:01:04;11.30;99.90
30893;DHT22;17595;50.884;4.346;2023-04-09T07:03:30;11.40;99.90
30893;DHT22;17595;50.884;4.346;2023-04-09T07:05:56;11.40;99.90
30893;DHT22;17595;50.884;4.346;2023-04-09T07:08:22;11.40;99.90
30893;DHT22;17595;50.884;4.346;2023-04-09T07:10:48;11.40;99.90
30893;DHT22;17595;50.884;4.346;2023-04-09T07:13:14;11.30;99.90
30893;DHT22;17595;50.884;4.346;2023-04-09T07:15:39;11.30;99.90
30893;DHT22;17595;50.884;4.346;2023-04-09T07:18:05;11.40;99.90
30893;DHT22;17595;50.884;4.346;2023-04-09T07:20:30;11.40;99.90
30893;DHT22;17595;50.884;4.346;2023-04-09T07:22:56;11.40;99.90
30893;DHT22;17595;50.884;4.346;2023-04-09T07:25:22;11.40;99.90
30893;DHT22;17595;50.884;4.346;2023-04-09T07:27:47;11.40;99.90
30893;DHT22;17595;50.884;4.346;2023-04-09T07:30:14;11.50;99.90
30893;DHT22;17595;50.884;4.346;2023-04-09T07:32:39;11.60;99.90
30893;DHT22;17595;50.884;4.346;2023-04-09T07:35:06;11.70;99.90
30893;DHT22;17595;50.884;4.346;2023-04-09T07:37:32;11.70;99.90
30893;DHT22;17595;50.884;4.346;2023-04-09T07:39:58;11.70;99.90
30893;DHT22;17595;50.884;4.346;2023-04-09T07:42:23;11.70;99.90
30893;DHT22;17595;50.884;4.346;2023-04-09T07:44:49;11.70;99.90
30893;DHT22;17595;50.884;4.346;2023-04-09T07:47:14;11.70;99.90
30893;DHT22;17595;50.884;4.346;2023-04-09T07:49:40;11.70;99.90
30893;DHT22;17595;50.884;4.346;2023-04-09T07:52:06;11.80;99.90
30893;DHT22;17595;50.884;4.346;2023-04-09T07:54:33;11.90;99.90
30893;DHT22;17595;50.884;4.346;2023-04-09T07:56:59;11.90;99.90
30893;DHT22;17595;50.884;4.346;2023-04-09T07:59:26;12.00;99.90
30893;DHT22;17595;50.884;4.346;2023-04-09T08:01:52;12.00;99.90
30893;DHT22;17595;50.884;4.346;2023-04-09T08:04:18;12.00;99.90
30893;DHT22;17595;50.884;4.346;2023-04-09T08:06:44;12.10;99.90
30893;DHT22;17595;50.884;4.346;2023-04-09T08:09:17;12.30;99.90
30893;DHT22;17595;50.884;4.346;2023-04-09T08:11:43;12.20;99.90
30893;DHT22;17595;50.884;4.346;2023-04-09T08:14:10;12.20;99.90
30893;DHT22;17595;50.884;4.346;2023-04-09T08:16:39;12.30;99.90
30893;DHT22;17595;50.884;4.346;2023-04-09T08:19:05;12.20;99.90
30893;DHT22;17595;50.884;4.346;2023-04-09T08:21:31;12.30;99.90
30893;DHT22;17595;50.884;4.346;2023-04-09T08:23:56;12.30;99.90
30893;DHT22;17595;50.884;4.346;2023-04-09T08:26:25;12.50;99.90
30893;DHT22;17595;50.884;4.346;2023-04-09T08:28:51;12.50;99.90
30893;DHT22;17595;50.884;4.346;2023-04-09T08:31:16;12.60;99.90
30893;DHT22;17595;50.884;4.346;2023-04-09T08:33:42;12.60;99.90
30893;DHT22;17595;50.884;4.346;2023-04-09T08:36:08;12.60;99.90
30893;DHT22;17595;50.884;4.346;2023-04-09T08:38:35;12.60;99.90
30893;DHT22;17595;50.884;4.346;2023-04-09T08:41:01;12.60;99.90
30893;DHT22;17595;50.884;4.346;2023-04-09T08:43:27;12.70;99.90
30893;DHT22;17595;50.884;4.346;2023-04-09T08:45:54;12.70;99.90
30893;DHT22;17595;50.884;4.346;2023-04-09T08:48:22;12.70;99.90
30893;DHT22;17595;50.884;4.346;2023-04-09T08:50:49;12.60;99.90
30893;DHT22;17595;50.884;4.346;2023-04-09T08:53:15;12.70;99.90
30893;DHT22;17595;50.884;4.346;2023-04-09T08:55:44;12.70;99.90
30893;DHT22;17595;50.884;4.346;2023-04-09T08:58:10;12.80;99.90
30893;DHT22;17595;50.884;4.346;2023-04-09T09:00:36;12.80;99.90
30893;DHT22;17595;50.884;4.346;2023-04-09T09:03:07;12.70;99.90
30893;DHT22;17595;50.884;4.346;2023-04-09T09:05:46;12.60;99.90
30893;DHT22;17595;50.884;4.346;2023-04-09T09:08:23;12.60;99.90
30893;DHT22;17595;50.884;4.346;2023-04-09T09:10:50;12.80;99.90
30893;DHT22;17595;50.884;4.346;2023-04-09T09:15:41;12.90;99.90
30893;DHT22;17595;50.884;4.346;2023-04-09T09:18:07;12.80;99.90
30893;DHT22;17595;50.884;4.346;2023-04-09T09:20:33;12.60;99.90
30893;DHT22;17595;50.884;4.346;2023-04-09T09:22:58;12.90;99.90
30893;DHT22;17595;50.884;4.346;2023-04-09T09:25:24;13.00;99.90
30893;DHT22;17595;50.884;4.346;2023-04-09T09:27:51;13.00;99.90
30893;DHT22;17595;50.884;4.346;2023-04-09T09:30:25;13.20;99.90
30893;DHT22;17595;50.884;4.346;2023-04-09T09:33:07;13.30;99.90
30893;DHT22;17595;50.884;4.346;2023-04-09T09:35:53;13.40;99.90
30893;DHT22;17595;50.884;4.346;2023-04-09T09:38:19;13.60;99.90
30893;DHT22;17595;50.884;4.346;2023-04-09T09:40:46;13.40;99.90
30893;DHT22;17595;50.884;4.346;2023-04-09T09:43:15;13.30;99.90
30893;DHT22;17595;50.884;4.346;2023-04-09T09:45:41;13.20;99.90
30893;DHT22;17595;50.884;4.346;2023-04-09T09:48:09;13.10;99.90
30893;DHT22;17595;50.884;4.346;2023-04-09T09:50:37;13.10;99.90
30893;DHT22;17595;50.884;4.346;2023-04-09T09:53:04;13.30;99.90
30893;DHT22;17595;50.884;4.346;2023-04-09T09:55:39;13.40;99.90
30893;DHT22;17595;50.884;4.346;2023-04-09T09:58:43;13.60;99.90
30893;DHT22;17595;50.884;4.346;2023-04-09T10:01:12;13.80;99.90
30893;DHT22;17595;50.884;4.346;2023-04-09T10:03:39;13.80;99.90
30893;DHT22;17595;50.884;4.346;2023-04-09T10:06:06;13.90;99.90
30893;DHT22;17595;50.884;4.346;2023-04-09T10:08:33;13.80;99.90
30893;DHT22;17595;50.884;4.346;2023-04-09T10:11:02;13.80;99.90
30893;DHT22;17595;50.884;4.346;2023-04-09T10:13:36;13.70;99.90
30893;DHT22;17595;50.884;4.346;2023-04-09T10:16:03;13.80;99.90
30893;DHT22;17595;50.884;4.346;2023-04-09T10:18:29;13.90;99.90
30893;DHT22;17595;50.884;4.346;2023-04-09T10:21:00;13.90;99.90
30893;DHT22;17595;50.884;4.346;2023-04-09T10:23:54;13.70;99.90
30893;DHT22;17595;50.884;4.346;2023-04-09T10:26:19;13.70;99.90
30893;DHT22;17595;50.884;4.346;2023-04-09T10:28:46;13.70;99.90
30893;DHT22;17595;50.884;4.346;2023-04-09T10:31:27;13.60;99.90
30893;DHT22;17595;50.884;4.346;2023-04-09T10:33:52;13.60;99.90
30893;DHT22;17595;50.884;4.346;2023-04-09T10:36:18;13.70;99.90
30893;DHT22;17595;50.884;4.346;2023-04-09T10:38:45;14.00;99.90
30893;DHT22;17595;50.884;4.346;2023-04-09T10:41:15;14.10;99.90
30893;DHT22;17595;50.884;4.346;2023-04-09T10:43:46;14.30;99.90
30893;DHT22;17595;50.884;4.346;2023-04-09T10:46:28;14.30;99.90
30893;DHT22;17595;50.884;4.346;2023-04-09T10:51:39;14.30;99.90
30893;DHT22;17595;50.884;4.346;2023-04-09T10:57:09;14.30;99.90
30893;DHT22;17595;50.884;4.346;2023-04-09T10:59:55;14.50;99.90
30893;DHT22;17595;50.884;4.346;2023-04-09T11:07:44;14.20;99.90
30893;DHT22;17595;50.884;4.346;2023-04-09T11:10:11;14.50;99.90
30893;DHT22;17595;50.884;4.346;2023-04-09T11:12:37;14.60;99.90
30893;DHT22;17595;50.884;4.346;2023-04-09T11:15:03;14.90;99.90
30893;DHT22;17595;50.884;4.346;2023-04-09T11:17:28;15.00;99.90
30893;DHT22;17595;50.884;4.346;2023-04-09T11:19:55;15.10;99.90
30893;DHT22;17595;50.884;4.346;2023-04-09T11:22:20;15.00;99.90
30893;DHT22;17595;50.884;4.346;2023-04-09T11:24:46;14.90;99.90
30893;DHT22;17595;50.884;4.346;2023-04-09T11:27:12;15.10;99.90
30893;DHT22;17595;50.884;4.346;2023-04-09T11:29:38;15.40;99.90
30893;DHT22;17595;50.884;4.346;2023-04-09T11:32:04;15.50;99.90
30893;DHT22;17595;50.884;4.346;2023-04-09T11:34:33;15.70;99.90
30893;DHT22;17595;50.884;4.346;2023-04-09T11:36:58;16.20;99.90
30893;DHT22;17595;50.884;4.346;2023-04-09T11:39:26;16.10;99.90
30893;DHT22;17595;50.884;4.346;2023-04-09T11:41:52;16.30;99.90
30893;DHT22;17595;50.884;4.346;2023-04-09T11:44:19;16.10;99.90
30893;DHT22;17595;50.884;4.346;2023-04-09T11:46:46;15.80;99.90
30893;DHT22;17595;50.884;4.346;2023-04-09T11:49:12;15.70;99.90
30893;DHT22;17595;50.884;4.346;2023-04-09T11:51:38;15.80;99.90
30893;DHT22;17595;50.884;4.346;2023-04-09T11:54:04;15.90;99.90
30893;DHT22;17595;50.884;4.346;2023-04-09T11:56:31;16.00;99.90
30893;DHT22;17595;50.884;4.346;2023-04-09T11:58:57;16.10;99.90
30893;DHT22;17595;50.884;4.346;2023-04-09T12:01:23;16.40;99.90
30893;DHT22;17595;50.884;4.346;2023-04-09T12:03:54;16.70;99.90
30893;DHT22;17595;50.884;4.346;2023-04-09T12:06:21;16.80;99.90
30893;DHT22;17595;50.884;4.346;2023-04-09T12:08:52;16.70;99.90
30893;DHT22;17595;50.884;4.346;2023-04-09T12:11:17;16.50;99.90
30893;DHT22;17595;50.884;4.346;2023-04-09T12:13:45;16.40;99.90
30893;DHT22;17595;50.884;4.346;2023-04-09T12:16:11;16.40;99.90
30893;DHT22;17595;50.884;4.346;2023-04-09T12:18:37;16.30;99.90
30893;DHT22;17595;50.884;4.346;2023-04-09T12:21:04;15.90;99.90
30893;DHT22;17595;50.884;4.346;2023-04-09T12:23:30;16.00;99.90
30893;DHT22;17595;50.884;4.346;2023-04-09T12:25:56;16.10;99.90
30893;DHT22;17595;50.884;4.346;2023-04-09T12:28:25;16.20;99.90
30893;DHT22;17595;50.884;4.346;2023-04-09T12:30:51;16.20;99.90
30893;DHT22;17595;50.884;4.346;2023-04-09T12:33:16;16.10;99.90
30893;DHT22;17595;50.884;4.346;2023-04-09T12:35:42;16.30;99.90
30893;DHT22;17595;50.884;4.346;2023-04-09T12:38:08;16.40;99.90
30893;DHT22;17595;50.884;4.346;2023-04-09T12:40:37;16.60;99.90
30893;DHT22;17595;50.884;4.346;2023-04-09T12:43:03;16.70;99.90
30893;DHT22;17595;50.884;4.346;2023-04-09T12:45:29;16.50;99.90
30893;DHT22;17595;50.884;4.346;2023-04-09T12:47:56;16.30;99.90
30893;DHT22;17595;50.884;4.346;2023-04-09T12:50:21;16.20;99.90
30893;DHT22;17595;50.884;4.346;2023-04-09T12:52:47;16.30;99.90
30893;DHT22;17595;50.884;4.346;2023-04-09T12:55:13;16.10;99.90
30893;DHT22;17595;50.884;4.346;2023-04-09T12:57:44;16.10;99.90
30893;DHT22;17595;50.884;4.346;2023-04-09T13:00:11;16.00;99.90
30893;DHT22;17595;50.884;4.346;2023-04-09T13:02:37;16.10;99.90
30893;DHT22;17595;50.884;4.346;2023-04-09T13:05:03;16.00;99.90
30893;DHT22;17595;50.884;4.346;2023-04-09T13:07:29;16.20;99.90
30893;DHT22;17595;50.884;4.346;2023-04-09T13:09:56;16.40;99.90
30893;DHT22;17595;50.884;4.346;2023-04-09T13:12:22;16.70;99.90
30893;DHT22;17595;50.884;4.346;2023-04-09T13:14:49;16.90;99.90
30893;DHT22;17595;50.884;4.346;2023-04-09T13:17:15;17.30;99.90
30893;DHT22;17595;50.884;4.346;2023-04-09T13:19:41;17.50;99.90
30893;DHT22;17595;50.884;4.346;2023-04-09T13:22:06;17.30;99.90
30893;DHT22;17595;50.884;4.346;2023-04-09T13:24:39;17.30;99.90
30893;DHT22;17595;50.884;4.346;2023-04-09T13:27:05;17.40;99.90
30893;DHT22;17595;50.884;4.346;2023-04-09T13:29:34;17.60;99.90
30893;DHT22;17595;50.884;4.346;2023-04-09T13:31:59;17.90;99.90
30893;DHT22;17595;50.884;4.346;2023-04-09T13:34:31;18.20;99.90
30893;DHT22;17595;50.884;4.346;2023-04-09T13:36:56;18.40;99.90
30893;DHT22;17595;50.884;4.346;2023-04-09T13:39:22;18.60;99.90
30893;DHT22;17595;50.884;4.346;2023-04-09T13:41:47;18.70;99.90
30893;DHT22;17595;50.884;4.346;2023-04-09T13:44:13;18.70;99.90
30893;DHT22;17595;50.884;4.346;2023-04-09T13:46:39;18.20;99.90
30893;DHT22;17595;50.884;4.346;2023-04-09T13:49:04;18.20;99.90
30893;DHT22;17595;50.884;4.346;2023-04-09T13:51:30;18.30;99.90
30893;DHT22;17595;50.884;4.346;2023-04-09T13:53:55;18.40;99.90
30893;DHT22;17595;50.884;4.346;2023-04-09T13:56:22;18.50;99.90
30893;DHT22;17595;50.884;4.346;2023-04-09T13:58:47;18.50;99.90
30893;DHT22;17595;50.884;4.346;2023-04-09T14:01:13;18.60;99.90
30893;DHT22;17595;50.884;4.346;2023-04-09T14:03:39;18.60;99.90
30893;DHT22;17595;50.884;4.346;2023-04-09T14:06:06;18.50;99.90
30893;DHT22;17595;50.884;4.346;2023-04-09T14:08:32;18.40;99.90
30893;DHT22;17595;50.884;4.346;2023-04-09T14:10:58;18.30;99.90
30893;DHT22;17595;50.884;4.346;2023-04-09T14:13:24;18.20;99.90
30893;DHT22;17595;50.884;4.346;2023-04-09T14:15:49;18.10;99.90
30893;DHT22;17595;50.884;4.346;2023-04-09T14:18:15;18.20;99.90
30893;DHT22;17595;50.884;4.346;2023-04-09T14:20:41;18.00;99.90
30893;DHT22;17595;50.884;4.346;2023-04-09T14:23:06;17.90;99.90
30893;DHT22;17595;50.884;4.346;2023-04-09T14:25:32;17.80;99.90
30893;DHT22;17595;50.884;4.346;2023-04-09T14:27:57;17.90;99.90
30893;DHT22;17595;50.884;4.346;2023-04-09T14:30:23;17.90;99.90
30893;DHT22;17595;50.884;4.346;2023-04-09T14:32:49;18.10;99.90
30893;DHT22;17595;50.884;4.346;2023-04-09T14:35:14;18.20;99.90
30893;DHT22;17595;50.884;4.346;2023-04-09T14:37:40;18.30;99.90
30893;DHT22;17595;50.884;4.346;2023-04-09T14:40:07;18.30;99.90
30893;DHT22;17595;50.884;4.346;2023-04-09T14:42:33;18.40;99.90
30893;DHT22;17595;50.884;4.346;2023-04-09T14:44:58;18.50;99.90
30893;DHT22;17595;50.884;4.346;2023-04-09T14:47:24;18.50;99.90
30893;DHT22;17595;50.884;4.346;2023-04-09T14:49:49;18.50;99.90
30893;DHT22;17595;50.884;4.346;2023-04-09T14:52:15;18.40;99.90
30893;DHT22;17595;50.884;4.346;2023-04-09T14:54:41;18.20;99.90
30893;DHT22;17595;50.884;4.346;2023-04-09T14:57:06;18.30;99.90
30893;DHT22;17595;50.884;4.346;2023-04-09T14:59:32;18.40;99.90
30893;DHT22;17595;50.884;4.346;2023-04-09T15:01:58;18.50;99.90
30893;DHT22;17595;50.884;4.346;2023-04-09T15:04:23;18.30;99.90
30893;DHT22;17595;50.884;4.346;2023-04-09T15:06:49;18.40;99.90
30893;DHT22;17595;50.884;4.346;2023-04-09T15:09:15;18.20;99.90
30893;DHT22;17595;50.884;4.346;2023-04-09T15:11:40;18.30;99.90
30893;DHT22;17595;50.884;4.346;2023-04-09T15:14:06;18.30;99.90
30893;DHT22;17595;50.884;4.346;2023-04-09T15:16:32;18.40;99.90
30893;DHT22;17595;50.884;4.346;2023-04-09T15:19:02;18.40;99.90
30893;DHT22;17595;50.884;4.346;2023-04-09T15:21:28;18.40;99.90
30893;DHT22;17595;50.884;4.346;2023-04-09T15:23:54;18.40;99.90
30893;DHT22;17595;50.884;4.346;2023-04-09T15:26:20;18.30;99.90
30893;DHT22;17595;50.884;4.346;2023-04-09T15:28:46;18.40;99.90
30893;DHT22;17595;50.884;4.346;2023-04-09T15:31:12;18.30;99.90
30893;DHT22;17595;50.884;4.346;2023-04-09T15:33:39;18.40;99.90
30893;DHT22;17595;50.884;4.346;2023-04-09T15:36:06;18.40;99.90
30893;DHT22;17595;50.884;4.346;2023-04-09T15:38:32;18.40;99.90
30893;DHT22;17595;50.884;4.346;2023-04-09T15:40:57;18.30;99.90
30893;DHT22;17595;50.884;4.346;2023-04-09T15:43:23;18.40;99.90
30893;DHT22;17595;50.884;4.346;2023-04-09T15:45:49;18.40;99.90
30893;DHT22;17595;50.884;4.346;2023-04-09T15:48:15;18.30;99.90